LOWSLFMP

Guest
Details From LOWS - Salzburg Maxglan
To LFMP - Rivesaltes
Flight Number -
Tags Generated
Created
Modified
Stats Distance 525 nm / 972 km
Max Altitude 0 ft / 0 m
Waypoints 4
Social Downloads 0
Likes 0
Share VATSIM

Download

Looking for another format? Having issues loading an existing format? Contact us
Advertisement - Login to hide

Notes

Generated

Route

LOWS IXUSA PPG LFMP

ID Type Via Altitude Latitude Longitude Leg Dist Tot Dist Heading (true) Name
O LOWS APT - 0 ft / 0 m 47.80472˚ 12.99717˚ - 0 nm - -
IXUSA FIX - 0 ft / 0 m 45.15750˚ 7.23694˚ 286 nm 286 nm 238° / 234° -
PPG VOR - 0 ft / 0 m 42.75047˚ 2.86714˚ 237 nm 524 nm 234° / 231° PERPIGNAN RIVESALTES VOR-DME
O LFMP APT - 0 ft / 0 m 42.73990˚ 2.86519˚ 0 nm 524 nm 188° / 188° Rivesaltes

Altitude Profile

Advertisement - Login to hide

Weather


0- 5 10 15 20 25 30 35+ Temperature / ° C

Clouds and Precipitation
Forecast for 2018-05-26 18:00 UTC. Updated 3 hours ago

Ground ~20,000 ft ~40,000 ft Winds

LOWS

Details ICAO LOWS (SZG)
Name Salzburg Maxglan
Region Austria
Timezone Europe/Vienna (UTC+2.0)
Stats Elevation 1,411 ft / 430 m (AMSL)
Location 47.793333° 13.004333°
Runways 1
Magnetic Variation 3.481° E

METAR

LOWS 261950Z 28003KT 9999 FEW090 19/14 Q1020 NOSIG

Decode

TAF

TAF LOWS 261715Z 2618/2718 15005KT CAVOK TX28/2713Z TN15/2703Z BECMG 2707/2709 03006KT 9999 FEW060 BKN300 TEMPO 2713/2718 33007KT SCT060 FEW060TCU PROB30 TEMPO 2715/2718 VRB15G25KT TSRA FEW060CB BKN070

Decode

Departure Runways

ID Width Length Bearing (true) Bearing (mag) Surface Threshold Offset Overrun Length
16 148 ft / 45 m 9,024 ft / 2,751 m 157.08° 153.60° Concrete 656 ft / 200 m 0 ft / 0 m
34 148 ft / 45 m 9,024 ft / 2,751 m 337.09° 333.61° Concrete 787 ft / 240 m 0 ft / 0 m

LFMP

Details ICAO LFMP (PGF)
Name Rivesaltes
Region France
Timezone Europe/Paris (UTC+2.0)
Stats Elevation 143 ft / 44 m (AMSL)
Location 42.740488° 2.870594°
Runways 2
Magnetic Variation 1.042° E

METAR

LFMP 262000Z AUTO 12008KT CAVOK 19/16 Q1015 BECMG BKN008

Decode

TAF

TAF LFMP 261400Z 2615/2715 11015KT CAVOK BECMG 2620/2622 06005KT BKN008 TEMPO 2623/2708 3000 BR OVC005 BECMG 2712/2715 12012KT

Decode

Destination Runways

ID Width Length Bearing (true) Bearing (mag) Surface Threshold Offset Overrun Length
13 66 ft / 20 m 4,231 ft / 1,290 m 127.54° 126.50° Asphalt 492 ft / 150 m 0 ft / 0 m
15 148 ft / 45 m 8,189 ft / 2,496 m 148.38° 147.34° Asphalt 0 ft / 0 m 230 ft / 70 m
31 66 ft / 20 m 4,231 ft / 1,290 m 307.55° 306.51° Asphalt 1,148 ft / 350 m 0 ft / 0 m
33 148 ft / 45 m 8,189 ft / 2,496 m 328.39° 327.35° Asphalt 558 ft / 170 m 230 ft / 70 m

Approach Navaids

Runway Type Ident Frequency Range Bearing (true) Bearing (mag) Slope Elevation
33 Localiser PL 111.75 MHz 18 nm / 33 km 328.30° 327.26° - 124 ft / 38 m (AMSL)
33 Glidescope PL 111.75 MHz 10 nm / 19 km 328.38° 327.34° 3.00° 124 ft / 38 m (AMSL)
33 DME PL 111.75 MHz 18 nm / 33 km - - - 183 ft / 56 m (AMSL)

Popular Alternatives